Time;durP1;ratioP1;P1;durP2;ratioP2;P2;SDS_P1;SDS_P2;PMS_P1;PMS_P2;Temp;Humidity;BMP_temperature;BMP_pressure;BME280_temperature;BME280_humidity;BME280_pressure;Samples;Min_cycle;Max_cycle;Signal;HPM_P1;HPM_P2
2021/12/19 00:01:03;;;;;;;;;;;4.20;99.90;;;;;;5071507;28;19927;-63
2021/12/19 00:08:50;;;;;;;;;;;4.20;99.90;;;;;;5069856;28;20372;-63
2021/12/19 00:11:18;;;;;;;;;;;4.20;99.90;;;;;;5071603;28;19920;-62
2021/12/19 00:13:46;;;;;;;;;;;4.20;99.90;;;;;;5071050;28;19925;-61
2021/12/19 00:16:14;;;;;;;;;;;4.20;99.90;;;;;;5071083;28;19931;-63
2021/12/19 00:18:43;;;;;;;;;;;4.20;99.90;;;;;;5062019;28;19921;-61
2021/12/19 00:21:14;;;;;;;;;;;4.20;99.90;;;;;;5050848;28;19921;-63
2021/12/19 00:23:42;;;;;;;;;;;4.20;99.90;;;;;;5059753;28;19928;-63
2021/12/19 00:26:10;;;;;;;;;;;4.20;99.90;;;;;;5071127;28;19921;-63
2021/12/19 00:28:37;;;;;;;;;;;4.20;99.90;;;;;;5070538;28;19920;-66
2021/12/19 00:31:06;;;;;;;;;;;4.20;99.90;;;;;;5070918;28;20288;-67
2021/12/19 00:33:33;;;;;;;;;;;4.20;99.90;;;;;;5064136;28;19920;-65
2021/12/19 00:36:03;;;;;;;;;;;4.30;99.90;;;;;;5050858;28;19920;-65
2021/12/19 00:38:31;;;;;;;;;;;4.20;99.90;;;;;;5058104;28;20371;-67
2021/12/19 00:40:59;;;;;;;;;;;4.20;99.90;;;;;;5069235;28;19932;-64
2021/12/19 00:46:07;;;;;;;;;;;4.30;99.90;;;;;;5070672;28;19927;-66
2021/12/19 00:48:41;;;;;;;;;;;4.30;99.90;;;;;;5064405;28;19921;-66
2021/12/19 00:51:13;;;;;;;;;;;4.30;99.90;;;;;;5050832;28;19920;-67
2021/12/19 00:53:42;;;;;;;;;;;4.30;99.90;;;;;;5058854;28;20189;-64
2021/12/19 00:56:12;;;;;;;;;;;4.30;99.90;;;;;;5070582;28;19920;-68
2021/12/19 00:58:41;;;;;;;;;;;4.30;99.90;;;;;;5069238;28;19928;-65
2021/12/19 01:01:09;;;;;;;;;;;4.30;99.90;;;;;;5068825;28;20414;-64
2021/12/19 01:03:37;;;;;;;;;;;4.30;99.90;;;;;;5044144;28;20189;-65
2021/12/19 01:06:05;;;;;;;;;;;4.30;99.90;;;;;;5047087;28;20344;-64
2021/12/19 01:08:32;;;;;;;;;;;4.30;99.90;;;;;;5056848;28;19920;-66
2021/12/19 01:11:00;;;;;;;;;;;4.20;99.90;;;;;;5070322;28;19924;-63
2021/12/19 01:13:27;;;;;;;;;;;4.20;99.90;;;;;;5070185;28;20303;-63
2021/12/19 01:15:57;;;;;;;;;;;4.20;99.90;;;;;;5070556;28;20482;-69
2021/12/19 01:18:24;;;;;;;;;;;4.30;99.90;;;;;;5067766;28;20058;-67
2021/12/19 01:20:52;;;;;;;;;;;4.30;99.90;;;;;;5048452;28;19920;-65
2021/12/19 01:23:21;;;;;;;;;;;4.30;99.90;;;;;;5055896;28;20376;-66
2021/12/19 01:25:50;;;;;;;;;;;4.30;99.90;;;;;;5070157;28;19931;-61
2021/12/19 01:28:18;;;;;;;;;;;4.20;99.90;;;;;;5069843;28;19920;-67
2021/12/19 01:30:46;;;;;;;;;;;4.20;99.90;;;;;;5068386;28;19929;-68
2021/12/19 01:33:13;;;;;;;;;;;4.20;99.90;;;;;;5068006;28;20389;-66
2021/12/19 01:35:41;;;;;;;;;;;4.20;99.90;;;;;;5050270;28;19920;-63
2021/12/19 01:38:08;;;;;;;;;;;4.10;99.90;;;;;;5054678;28;20261;-64
2021/12/19 01:40:36;;;;;;;;;;;4.10;99.90;;;;;;5069552;28;19943;-64
2021/12/19 01:43:05;;;;;;;;;;;4.10;99.90;;;;;;5069098;28;19931;-61
2021/12/19 01:45:35;;;;;;;;;;;4.10;99.90;;;;;;5069769;28;19920;-62
2021/12/19 01:48:04;;;;;;;;;;;4.00;99.90;;;;;;5069581;28;19920;-62
2021/12/19 01:50:38;;;;;;;;;;;4.10;99.90;;;;;;5050882;28;19939;-63
2021/12/19 01:53:06;;;;;;;;;;;4.00;99.90;;;;;;5052625;28;19935;-61
2021/12/19 01:55:37;;;;;;;;;;;4.00;99.90;;;;;;5050201;28;19928;-63
2021/12/19 01:58:05;;;;;;;;;;;4.00;99.90;;;;;;5053596;28;19943;-63
2021/12/19 02:00:35;;;;;;;;;;;4.00;99.90;;;;;;5056990;28;20316;-64
2021/12/19 02:03:03;;;;;;;;;;;4.00;99.90;;;;;;5067541;28;19920;-61
2021/12/19 02:05:34;;;;;;;;;;;3.90;99.90;;;;;;5063744;28;19928;-62
2021/12/19 02:08:02;;;;;;;;;;;3.90;99.90;;;;;;5051908;28;19920;-62
2021/12/19 02:10:31;;;;;;;;;;;3.90;99.90;;;;;;5069136;28;19920;-64
2021/12/19 02:12:59;;;;;;;;;;;3.80;99.90;;;;;;5068706;28;19927;-62
2021/12/19 02:15:28;;;;;;;;;;;3.80;99.90;;;;;;5067872;28;19922;-62
2021/12/19 02:18:04;;;;;;;;;;;3.80;99.90;;;;;;5067565;28;19931;-61
2021/12/19 02:20:33;;;;;;;;;;;3.80;99.90;;;;;;5052700;28;19955;-62
2021/12/19 02:23:06;;;;;;;;;;;3.90;99.90;;;;;;5052025;28;19927;-62
2021/12/19 02:25:34;;;;;;;;;;;3.90;99.90;;;;;;5068671;28;19928;-63
2021/12/19 02:28:02;;;;;;;;;;;3.90;99.90;;;;;;5068806;28;19928;-62
2021/12/19 02:30:30;;;;;;;;;;;3.90;99.90;;;;;;5064239;28;19924;-61
2021/12/19 02:32:57;;;;;;;;;;;3.90;99.90;;;;;;5052350;28;19921;-61
2021/12/19 02:35:29;;;;;;;;;;;3.90;99.90;;;;;;5051300;28;19932;-61
2021/12/19 02:48:49;;;;;;;;;;;3.90;99.90;;;;;;5072160;28;19921;-61
2021/12/19 02:51:16;;;;;;;;;;;3.90;99.90;;;;;;5072161;28;19920;-62
2021/12/19 02:53:44;;;;;;;;;;;3.90;99.90;;;;;;5072417;28;19927;-61
2021/12/19 02:56:12;;;;;;;;;;;3.90;99.90;;;;;;5087346;28;20273;-61
2021/12/19 02:58:40;;;;;;;;;;;3.90;99.90;;;;;;5071168;28;19928;-62
2021/12/19 03:01:10;;;;;;;;;;;3.90;99.90;;;;;;5071681;28;20288;-61
2021/12/19 03:03:37;;;;;;;;;;;3.90;99.90;;;;;;5075957;28;19920;-61
2021/12/19 03:06:05;;;;;;;;;;;3.90;99.90;;;;;;5108342;28;19931;-61
2021/12/19 03:08:33;;;;;;;;;;;3.90;99.90;;;;;;5074319;28;20410;-62
2021/12/19 03:11:40;;;;;;;;;;;3.90;99.90;;;;;;5075891;28;19927;-61
2021/12/19 03:19:27;;;;;;;;;;;3.80;99.90;;;;;;5075701;28;19921;-62
2021/12/19 03:21:55;;;;;;;;;;;3.80;99.90;;;;;;5075579;28;19920;-62
2021/12/19 03:24:22;;;;;;;;;;;3.70;99.90;;;;;;5075773;28;19920;-61
2021/12/19 03:26:51;;;;;;;;;;;3.70;99.90;;;;;;5075832;28;19921;-61
2021/12/19 03:29:19;;;;;;;;;;;3.70;99.90;;;;;;5075588;28;19935;-62
2021/12/19 03:31:48;;;;;;;;;;;3.70;99.90;;;;;;5075644;28;19920;-62
2021/12/19 03:34:15;;;;;;;;;;;3.70;99.90;;;;;;5076133;28;19924;-63
2021/12/19 03:36:42;;;;;;;;;;;3.70;99.90;;;;;;5074362;28;19920;-62
2021/12/19 03:39:26;;;;;;;;;;;3.60;99.90;;;;;;5074011;28;19920;-62
2021/12/19 03:41:56;;;;;;;;;;;3.60;99.90;;;;;;5075311;28;19921;-61
2021/12/19 03:44:24;;;;;;;;;;;3.60;99.90;;;;;;5075487;28;19920;-62
2021/12/19 03:46:51;;;;;;;;;;;3.60;99.90;;;;;;5075333;28;19920;-61
2021/12/19 03:49:19;;;;;;;;;;;3.60;99.90;;;;;;5075358;28;19943;-63
2021/12/19 03:51:56;;;;;;;;;;;3.60;99.90;;;;;;5075297;28;20380;-69
2021/12/19 03:54:23;;;;;;;;;;;3.70;99.90;;;;;;5075199;28;19934;-68
2021/12/19 03:56:51;;;;;;;;;;;3.70;99.90;;;;;;5075137;28;19927;-63
2021/12/19 03:59:19;;;;;;;;;;;3.70;99.90;;;;;;5075023;28;19924;-67
2021/12/19 04:01:50;;;;;;;;;;;3.70;99.90;;;;;;5073934;28;19927;-69
2021/12/19 04:04:18;;;;;;;;;;;3.60;99.90;;;;;;5075122;28;19920;-68
2021/12/19 04:06:46;;;;;;;;;;;3.60;99.90;;;;;;5073613;28;19924;-64
2021/12/19 04:09:17;;;;;;;;;;;3.60;99.90;;;;;;5073634;28;19920;-67
2021/12/19 04:11:45;;;;;;;;;;;3.60;99.90;;;;;;5074928;28;19928;-64
2021/12/19 04:14:12;;;;;;;;;;;3.60;99.90;;;;;;5072766;28;19920;-64
2021/12/19 04:16:42;;;;;;;;;;;3.60;99.90;;;;;;5073704;28;19920;-62
2021/12/19 04:19:10;;;;;;;;;;;3.60;99.90;;;;;;5074867;28;19928;-62
2021/12/19 04:21:39;;;;;;;;;;;3.60;99.90;;;;;;5074281;28;19937;-61
2021/12/19 04:24:07;;;;;;;;;;;3.60;99.90;;;;;;5074406;28;19920;-61
2021/12/19 04:26:35;;;;;;;;;;;3.60;99.90;;;;;;5074613;28;19920;-62
2021/12/19 04:29:03;;;;;;;;;;;3.60;99.90;;;;;;5073225;28;19920;-62
2021/12/19 04:31:30;;;;;;;;;;;3.40;99.90;;;;;;5075063;28;19974;-63
2021/12/19 04:33:58;;;;;;;;;;;3.50;99.90;;;;;;5074292;28;19920;-63
2021/12/19 04:36:32;;;;;;;;;;;3.50;99.90;;;;;;5074247;28;19927;-61
2021/12/19 05:00:17;;;;;;;;;;;3.50;99.90;;;;;;5073784;28;19920;-69
2021/12/19 05:02:59;;;;;;;;;;;3.50;99.90;;;;;;5074093;28;19920;-69
2021/12/19 05:16:29;;;;;;;;;;;3.50;99.90;;;;;;5073692;28;19920;-66
2021/12/19 05:19:04;;;;;;;;;;;3.40;99.90;;;;;;5072200;28;19921;-67
2021/12/19 05:21:34;;;;;;;;;;;3.40;99.90;;;;;;5073381;28;20379;-68
2021/12/19 05:26:29;;;;;;;;;;;3.40;99.90;;;;;;5072383;28;20364;-68
2021/12/19 05:28:57;;;;;;;;;;;3.30;99.90;;;;;;5073002;28;19927;-67
2021/12/19 05:31:25;;;;;;;;;;;3.30;99.90;;;;;;5073565;28;19920;-67
2021/12/19 05:33:52;;;;;;;;;;;3.30;99.90;;;;;;5073353;28;19920;-66
2021/12/19 05:47:07;;;;;;;;;;;3.20;99.90;;;;;;5068430;28;19924;-63
2021/12/19 05:49:34;;;;;;;;;;;3.10;99.90;;;;;;5048678;28;19921;-61
2021/12/19 05:52:02;;;;;;;;;;;3.10;99.90;;;;;;5049582;28;19927;-62
2021/12/19 05:54:30;;;;;;;;;;;3.10;99.90;;;;;;5049202;28;19920;-62
2021/12/19 05:56:57;;;;;;;;;;;3.10;99.90;;;;;;5049096;28;19921;-62
2021/12/19 05:59:27;;;;;;;;;;;3.10;99.90;;;;;;5049142;28;19928;-61
2021/12/19 06:01:58;;;;;;;;;;;3.10;99.90;;;;;;5084494;28;20698;-63
2021/12/19 06:04:25;;;;;;;;;;;3.10;99.90;;;;;;5044364;28;19931;-61
2021/12/19 06:06:53;;;;;;;;;;;3.10;99.90;;;;;;5044551;28;19921;-62
2021/12/19 06:09:21;;;;;;;;;;;3.10;99.90;;;;;;5067403;28;19920;-62
2021/12/19 06:11:48;;;;;;;;;;;3.10;99.90;;;;;;5068845;28;19927;-64
2021/12/19 06:14:15;;;;;;;;;;;3.10;99.90;;;;;;5069106;28;19936;-66
2021/12/19 06:16:43;;;;;;;;;;;3.10;99.90;;;;;;5067112;28;20379;-62
2021/12/19 06:19:10;;;;;;;;;;;3.00;99.90;;;;;;5049867;28;19943;-61
2021/12/19 06:21:38;;;;;;;;;;;3.10;99.90;;;;;;5046452;28;19920;-65
2021/12/19 06:24:05;;;;;;;;;;;3.10;99.90;;;;;;5067981;28;19927;-62
2021/12/19 06:26:35;;;;;;;;;;;3.00;99.90;;;;;;5069103;28;19920;-64
2021/12/19 06:29:03;;;;;;;;;;;3.00;99.90;;;;;;5068808;28;19920;-61
2021/12/19 06:31:31;;;;;;;;;;;3.00;99.90;;;;;;5068720;28;19939;-63
2021/12/19 06:33:58;;;;;;;;;;;3.00;99.90;;;;;;5055111;28;19928;-62
2021/12/19 06:36:27;;;;;;;;;;;3.00;99.90;;;;;;5048462;28;20296;-63
2021/12/19 06:38:54;;;;;;;;;;;3.00;99.90;;;;;;5064690;28;20368;-64
2021/12/19 06:41:22;;;;;;;;;;;3.00;99.90;;;;;;5068908;28;19927;-62
2021/12/19 06:43:50;;;;;;;;;;;3.00;99.90;;;;;;5068607;28;20082;-64
2021/12/19 06:46:18;;;;;;;;;;;3.00;99.90;;;;;;5069014;28;19927;-65
2021/12/19 06:48:45;;;;;;;;;;;3.00;99.90;;;;;;5058084;28;19936;-62
2021/12/19 06:51:13;;;;;;;;;;;2.90;99.90;;;;;;5048799;28;19921;-64
2021/12/19 06:53:42;;;;;;;;;;;2.90;99.90;;;;;;5062770;28;20315;-68
2021/12/19 06:56:10;;;;;;;;;;;2.80;99.90;;;;;;5064024;28;19921;-66
2021/12/19 06:58:37;;;;;;;;;;;2.80;99.90;;;;;;5065906;28;19921;-62
2021/12/19 07:01:05;;;;;;;;;;;2.80;99.90;;;;;;5068383;28;20299;-61
2021/12/19 07:03:32;;;;;;;;;;;2.80;99.90;;;;;;5060781;28;20315;-61
2021/12/19 07:06:01;;;;;;;;;;;2.70;99.90;;;;;;5048679;28;19927;-62
2021/12/19 07:08:29;;;;;;;;;;;2.70;99.90;;;;;;5060533;28;19920;-61
2021/12/19 07:10:57;;;;;;;;;;;2.60;99.90;;;;;;5068430;28;19920;-61
2021/12/19 07:13:25;;;;;;;;;;;2.50;99.90;;;;;;5065179;28;19921;-62
2021/12/19 07:15:54;;;;;;;;;;;2.50;99.90;;;;;;5064979;28;20407;-62
2021/12/19 07:18:22;;;;;;;;;;;2.40;99.90;;;;;;5062039;28;19927;-61
2021/12/19 07:20:53;;;;;;;;;;;2.40;99.90;;;;;;5048109;28;20320;-61
2021/12/19 07:23:22;;;;;;;;;;;2.30;99.90;;;;;;5061091;28;20292;-62
2021/12/19 07:25:50;;;;;;;;;;;2.30;99.90;;;;;;5068510;28;19921;-61
2021/12/19 07:28:18;;;;;;;;;;;2.30;99.90;;;;;;5067968;28;19924;-61
2021/12/19 07:30:48;;;;;;;;;;;2.20;99.90;;;;;;5066591;28;19943;-64
2021/12/19 07:33:19;;;;;;;;;;;2.30;99.90;;;;;;5061299;28;19920;-62
2021/12/19 07:35:48;;;;;;;;;;;2.20;99.90;;;;;;5045138;28;19931;-64
2021/12/19 07:38:30;;;;;;;;;;;2.20;99.90;;;;;;5058926;28;20384;-61
2021/12/19 07:41:02;;;;;;;;;;;2.20;99.90;;;;;;5068251;28;20379;-63
2021/12/19 07:43:30;;;;;;;;;;;2.20;99.90;;;;;;5067801;28;19924;-65
2021/12/19 07:45:57;;;;;;;;;;;2.20;99.90;;;;;;5066777;28;19928;-63
2021/12/19 07:48:24;;;;;;;;;;;2.20;99.90;;;;;;5065166;28;20517;-63
2021/12/19 07:50:53;;;;;;;;;;;2.20;99.90;;;;;;5051617;28;19920;-63
2021/12/19 07:53:20;;;;;;;;;;;2.20;99.90;;;;;;5060845;28;19931;-62
2021/12/19 07:55:48;;;;;;;;;;;2.20;99.90;;;;;;5068761;28;19936;-62
2021/12/19 07:58:15;;;;;;;;;;;2.10;99.90;;;;;;5071263;28;19920;-61
2021/12/19 08:00:43;;;;;;;;;;;2.10;99.90;;;;;;5071666;28;19920;-63
2021/12/19 08:03:10;;;;;;;;;;;2.00;99.90;;;;;;5067386;28;19924;-62
2021/12/19 08:05:38;;;;;;;;;;;2.00;99.90;;;;;;5048001;28;19935;-61
2021/12/19 08:08:06;;;;;;;;;;;1.90;99.90;;;;;;5058442;28;19921;-62
2021/12/19 08:13:02;;;;;;;;;;;1.80;99.90;;;;;;5070865;28;19921;-63
2021/12/19 08:15:30;;;;;;;;;;;1.70;99.90;;;;;;5071325;28;19932;-63
2021/12/19 08:17:57;;;;;;;;;;;1.70;99.90;;;;;;5070850;28;19924;-62
2021/12/19 08:20:27;;;;;;;;;;;1.60;99.90;;;;;;5052682;28;19932;-62
2021/12/19 08:22:55;;;;;;;;;;;1.50;99.90;;;;;;5057379;28;19924;-61
2021/12/19 08:25:23;;;;;;;;;;;1.50;99.90;;;;;;5068353;28;19920;-62
2021/12/19 08:27:51;;;;;;;;;;;1.40;99.90;;;;;;5067863;28;19921;-61
2021/12/19 08:30:20;;;;;;;;;;;1.40;99.90;;;;;;5067886;28;19921;-62
2021/12/19 08:32:52;;;;;;;;;;;1.40;99.90;;;;;;5067242;28;19927;-61
2021/12/19 08:35:19;;;;;;;;;;;1.40;99.90;;;;;;5050055;28;19936;-62
2021/12/19 08:37:47;;;;;;;;;;;1.40;99.90;;;;;;5055998;28;19924;-62
2021/12/19 08:40:15;;;;;;;;;;;1.40;99.90;;;;;;5070920;28;19924;-61
2021/12/19 08:42:44;;;;;;;;;;;1.40;99.90;;;;;;5070589;28;19942;-62
2021/12/19 08:45:11;;;;;;;;;;;1.40;99.90;;;;;;5070800;28;19920;-61
2021/12/19 08:47:39;;;;;;;;;;;1.40;99.90;;;;;;5069580;28;19924;-62
2021/12/19 08:50:08;;;;;;;;;;;1.40;99.90;;;;;;5056843;28;20380;-62
2021/12/19 08:52:36;;;;;;;;;;;1.50;99.90;;;;;;5056615;28;19924;-62
2021/12/19 08:55:05;;;;;;;;;;;1.50;99.90;;;;;;5069296;28;19921;-67
2021/12/19 08:57:32;;;;;;;;;;;1.60;99.90;;;;;;5069100;28;19920;-68
2021/12/19 09:00:08;;;;;;;;;;;1.60;99.90;;;;;;5069388;28;20304;-65
2021/12/19 09:02:36;;;;;;;;;;;1.60;99.90;;;;;;5070311;28;19938;-65
2021/12/19 09:05:04;;;;;;;;;;;1.70;99.90;;;;;;5056606;28;20285;-61
2021/12/19 09:07:32;;;;;;;;;;;1.70;99.90;;;;;;5054099;28;19927;-68
2021/12/19 09:09:59;;;;;;;;;;;1.70;99.90;;;;;;5070247;28;19943;-68
2021/12/19 09:12:30;;;;;;;;;;;1.70;99.90;;;;;;5070041;28;19947;-66
2021/12/19 09:15:00;;;;;;;;;;;1.70;99.90;;;;;;5068867;28;20269;-64
2021/12/19 09:17:28;;;;;;;;;;;1.80;99.90;;;;;;5052213;28;19935;-68
2021/12/19 09:19:56;;;;;;;;;;;1.80;99.90;;;;;;5059431;28;20362;-64
2021/12/19 09:22:30;;;;;;;;;;;1.80;99.90;;;;;;5054981;28;19920;-64
2021/12/19 09:25:21;;;;;;;;;;;1.80;99.90;;;;;;5070115;28;19943;-67
2021/12/19 09:27:48;;;;;;;;;;;1.80;99.90;;;;;;5069909;28;19924;-66
2021/12/19 09:30:16;;;;;;;;;;;1.80;99.90;;;;;;5069905;28;19931;-68
2021/12/19 09:32:44;;;;;;;;;;;1.80;99.90;;;;;;5068448;28;20288;-67
2021/12/19 09:35:14;;;;;;;;;;;1.70;99.90;;;;;;5065024;28;19920;-65
2021/12/19 09:37:42;;;;;;;;;;;1.80;99.90;;;;;;5055355;28;19920;-63
2021/12/19 09:40:11;;;;;;;;;;;1.70;99.90;;;;;;5069594;28;19928;-62
2021/12/19 09:42:48;;;;;;;;;;;1.70;99.90;;;;;;5067822;28;19920;-61
2021/12/19 09:45:18;;;;;;;;;;;1.70;99.90;;;;;;5069908;28;19921;-62
2021/12/19 09:47:45;;;;;;;;;;;1.70;99.90;;;;;;5068058;28;19935;-63
2021/12/19 09:50:16;;;;;;;;;;;1.80;99.90;;;;;;5058438;28;19943;-62
2021/12/19 09:52:49;;;;;;;;;;;1.80;99.90;;;;;;5056268;28;20026;-62
2021/12/19 09:55:21;;;;;;;;;;;1.90;99.90;;;;;;5069441;28;19920;-64
2021/12/19 09:57:54;;;;;;;;;;;1.90;99.90;;;;;;5067866;28;19932;-68
2021/12/19 10:00:25;;;;;;;;;;;1.90;99.90;;;;;;5069384;28;19924;-63
2021/12/19 10:02:53;;;;;;;;;;;2.00;99.90;;;;;;5067742;28;19928;-63
2021/12/19 10:05:23;;;;;;;;;;;2.10;99.90;;;;;;5057496;28;19928;-63
2021/12/19 10:08:10;;;;;;;;;;;2.10;99.90;;;;;;5058045;28;20326;-62
2021/12/19 10:11:03;;;;;;;;;;;2.20;99.90;;;;;;5069099;28;19921;-63
2021/12/19 10:13:33;;;;;;;;;;;2.20;99.90;;;;;;5068550;28;20376;-64
2021/12/19 10:16:01;;;;;;;;;;;2.30;99.90;;;;;;5069501;28;19925;-62
2021/12/19 10:18:29;;;;;;;;;;;2.30;99.90;;;;;;5069484;28;19924;-61
2021/12/19 10:20:58;;;;;;;;;;;2.40;99.90;;;;;;5054019;28;20364;-61
2021/12/19 10:26:23;;;;;;;;;;;2.50;99.90;;;;;;5067914;28;19920;-63
2021/12/19 10:28:52;;;;;;;;;;;2.50;99.90;;;;;;5067482;28;19920;-61
2021/12/19 10:31:20;;;;;;;;;;;2.60;99.90;;;;;;5068766;28;19924;-63
2021/12/19 10:33:48;;;;;;;;;;;2.70;99.90;;;;;;5068314;28;19920;-61
2021/12/19 10:36:16;;;;;;;;;;;2.70;99.90;;;;;;5048478;28;19944;-63
2021/12/19 10:38:45;;;;;;;;;;;2.80;99.90;;;;;;5060676;28;19920;-61
2021/12/19 10:41:14;;;;;;;;;;;2.70;99.90;;;;;;5068517;28;19928;-63
2021/12/19 10:43:44;;;;;;;;;;;2.80;99.90;;;;;;5066857;28;20285;-61
2021/12/19 10:46:13;;;;;;;;;;;2.80;99.90;;;;;;5067236;28;19920;-62
2021/12/19 10:48:42;;;;;;;;;;;2.90;99.90;;;;;;5068377;28;20302;-63
2021/12/19 10:51:15;;;;;;;;;;;2.90;99.90;;;;;;5053977;28;19929;-61
2021/12/19 10:53:52;;;;;;;;;;;3.00;99.90;;;;;;5063161;28;19920;-62
2021/12/19 10:56:21;;;;;;;;;;;3.10;99.90;;;;;;5068081;28;19924;-62
2021/12/19 10:58:57;;;;;;;;;;;3.10;99.90;;;;;;5068348;28;19927;-61
2021/12/19 11:01:29;;;;;;;;;;;3.10;99.90;;;;;;5068297;28;20372;-61
2021/12/19 11:04:03;;;;;;;;;;;3.10;99.90;;;;;;5067787;28;20404;-63
2021/12/19 11:06:37;;;;;;;;;;;3.20;99.90;;;;;;5050648;28;20265;-61
2021/12/19 11:09:08;;;;;;;;;;;3.20;99.90;;;;;;5064804;28;20284;-63
2021/12/19 11:11:41;;;;;;;;;;;3.30;99.90;;;;;;5068639;28;19920;-63
2021/12/19 11:14:13;;;;;;;;;;;3.30;99.90;;;;;;5067914;28;19947;-63
2021/12/19 11:16:41;;;;;;;;;;;3.30;99.90;;;;;;5050876;28;19924;-64
2021/12/19 11:19:12;;;;;;;;;;;3.30;99.90;;;;;;5068568;28;19920;-61
2021/12/19 11:21:39;;;;;;;;;;;3.30;99.90;;;;;;5051142;28;19929;-61
2021/12/19 11:24:14;;;;;;;;;;;3.30;99.90;;;;;;5048779;28;19924;-67
2021/12/19 11:26:43;;;;;;;;;;;3.40;99.90;;;;;;5072369;28;20288;-70
2021/12/19 11:29:13;;;;;;;;;;;3.40;99.90;;;;;;5071938;28;19920;-65
2021/12/19 11:31:44;;;;;;;;;;;3.40;99.90;;;;;;5070223;28;20193;-65
2021/12/19 11:34:21;;;;;;;;;;;3.40;99.90;;;;;;5067212;28;19927;-69
2021/12/19 11:36:55;;;;;;;;;;;3.50;99.90;;;;;;5053505;28;19927;-69
2021/12/19 11:39:30;;;;;;;;;;;3.60;99.90;;;;;;5070533;28;19927;-67
2021/12/19 11:42:04;;;;;;;;;;;3.60;99.90;;;;;;5072401;28;20479;-69
2021/12/19 11:45:28;;;;;;;;;;;3.60;99.90;;;;;;5070871;28;19921;-63
2021/12/19 11:47:47;;;;;;;;;;;3.60;99.90;;;;;;5068690;28;20287;-68
2021/12/19 11:50:18;;;;;;;;;;;3.60;99.90;;;;;;5067987;28;19928;-69
2021/12/19 11:52:56;;;;;;;;;;;3.70;99.90;;;;;;5070006;28;19921;-69
2021/12/19 11:55:29;;;;;;;;;;;3.70;99.90;;;;;;5071911;28;19920;-70
2021/12/19 11:58:08;;;;;;;;;;;3.70;99.90;;;;;;5070984;28;19931;-66
2021/12/19 12:00:38;;;;;;;;;;;3.80;99.90;;;;;;5050312;28;19920;-68
2021/12/19 12:03:12;;;;;;;;;;;3.90;99.90;;;;;;5057326;28;20145;-69
2021/12/19 12:05:39;;;;;;;;;;;4.00;99.90;;;;;;5067819;28;19932;-67
2021/12/19 12:08:08;;;;;;;;;;;4.20;99.90;;;;;;5068159;28;19920;-69
2021/12/19 12:10:48;;;;;;;;;;;4.30;99.90;;;;;;5064108;28;20268;-65
2021/12/19 12:13:26;;;;;;;;;;;4.40;99.90;;;;;;5058556;28;19931;-64
2021/12/19 12:16:05;;;;;;;;;;;4.50;99.90;;;;;;5052168;28;20091;-68
2021/12/19 12:18:38;;;;;;;;;;;4.50;99.90;;;;;;5051499;28;20296;-68
2021/12/19 12:21:18;;;;;;;;;;;4.50;99.90;;;;;;5070796;28;19924;-65
2021/12/19 12:23:56;;;;;;;;;;;4.50;99.90;;;;;;5070647;28;20369;-63
2021/12/19 12:26:26;;;;;;;;;;;4.40;99.90;;;;;;5071103;28;19927;-62
2021/12/19 12:28:54;;;;;;;;;;;4.40;99.90;;;;;;5069409;28;19920;-62
2021/12/19 12:31:24;;;;;;;;;;;4.40;99.90;;;;;;5050782;28;19921;-62
2021/12/19 12:33:54;;;;;;;;;;;4.30;99.90;;;;;;5065903;28;19920;-62
2021/12/19 12:36:22;;;;;;;;;;;4.30;99.90;;;;;;5070324;28;20391;-60
2021/12/19 12:38:51;;;;;;;;;;;4.20;99.90;;;;;;5068229;28;19925;-61
2021/12/19 12:44:22;;;;;;;;;;;4.20;99.90;;;;;;5061747;28;19921;-62
2021/12/19 12:46:50;;;;;;;;;;;4.20;99.90;;;;;;5047345;28;20491;-60
2021/12/19 12:49:19;;;;;;;;;;;4.10;99.90;;;;;;5054949;28;19924;-62
2021/12/19 12:51:48;;;;;;;;;;;4.10;99.90;;;;;;5049346;28;19920;-62
2021/12/19 12:54:25;;;;;;;;;;;4.10;99.90;;;;;;5068674;28;19928;-62
2021/12/19 12:56:57;;;;;;;;;;;4.10;99.90;;;;;;5057783;28;19924;-61
2021/12/19 12:59:29;;;;;;;;;;;4.20;99.90;;;;;;5052103;28;19925;-60
2021/12/19 13:04:39;;;;;;;;;;;4.20;99.90;;;;;;5050635;28;20257;-60
2021/12/19 13:07:09;;;;;;;;;;;4.20;99.90;;;;;;5050301;28;20292;-63
2021/12/19 13:09:45;;;;;;;;;;;4.20;99.90;;;;;;5058062;28;19920;-60
2021/12/19 13:12:17;;;;;;;;;;;4.20;99.90;;;;;;5069920;28;19921;-61
2021/12/19 13:14:52;;;;;;;;;;;4.20;99.90;;;;;;5064161;28;19924;-60
2021/12/19 13:17:22;;;;;;;;;;;4.20;99.90;;;;;;5050072;28;20288;-60
2021/12/19 13:19:58;;;;;;;;;;;4.00;99.90;;;;;;5057698;28;19920;-63
2021/12/19 13:22:37;;;;;;;;;;;4.00;99.90;;;;;;5068567;28;19924;-60
2021/12/19 13:25:12;;;;;;;;;;;4.00;99.90;;;;;;5068731;28;19920;-62
2021/12/19 13:27:41;;;;;;;;;;;4.00;99.90;;;;;;5069855;28;20395;-60
2021/12/19 13:30:11;;;;;;;;;;;4.00;99.90;;;;;;5061946;28;19921;-61
2021/12/19 13:32:41;;;;;;;;;;;3.90;99.90;;;;;;5053202;28;19920;-61
2021/12/19 13:35:23;;;;;;;;;;;3.90;99.90;;;;;;5064102;28;19928;-62
2021/12/19 13:37:50;;;;;;;;;;;3.90;99.90;;;;;;5049904;28;19921;-60
2021/12/19 13:40:18;;;;;;;;;;;3.90;99.90;;;;;;5063251;28;19927;-60
2021/12/19 13:42:48;;;;;;;;;;;3.90;99.90;;;;;;5069682;28;19921;-61
2021/12/19 13:45:32;;;;;;;;;;;3.90;99.90;;;;;;5061537;28;20373;-62
2021/12/19 13:48:00;;;;;;;;;;;3.90;99.90;;;;;;5048837;28;19932;-66
2021/12/19 13:50:32;;;;;;;;;;;3.90;99.90;;;;;;5063978;28;20288;-63
2021/12/19 13:53:00;;;;;;;;;;;4.00;99.90;;;;;;5067713;28;19921;-61
2021/12/19 13:55:27;;;;;;;;;;;4.00;99.90;;;;;;5066457;28;20402;-60
2021/12/19 13:58:05;;;;;;;;;;;4.00;99.90;;;;;;5067687;28;19928;-64
2021/12/19 14:00:35;;;;;;;;;;;4.00;99.90;;;;;;5058551;28;20085;-61
2021/12/19 14:03:03;;;;;;;;;;;3.90;99.90;;;;;;5056232;28;20482;-62
2021/12/19 14:05:47;;;;;;;;;;;3.80;99.90;;;;;;5068145;28;19924;-65
2021/12/19 14:08:19;;;;;;;;;;;3.80;99.90;;;;;;5069042;28;19943;-62
2021/12/19 14:10:58;;;;;;;;;;;3.60;99.90;;;;;;5068930;28;19935;-63
2021/12/19 14:13:32;;;;;;;;;;;3.50;99.90;;;;;;5069454;28;19921;-69
2021/12/19 14:16:00;;;;;;;;;;;3.40;99.90;;;;;;5039154;28;20078;-66
2021/12/19 14:18:35;;;;;;;;;;;3.30;99.90;;;;;;5049033;28;19920;-64
2021/12/19 14:21:02;;;;;;;;;;;3.30;99.90;;;;;;5067717;28;19920;-62
2021/12/19 14:23:37;;;;;;;;;;;3.20;99.90;;;;;;5068861;28;19920;-62
2021/12/19 14:26:05;;;;;;;;;;;3.10;99.90;;;;;;5055638;28;19928;-61
2021/12/19 14:28:36;;;;;;;;;;;3.00;99.90;;;;;;5048641;28;20399;-67
2021/12/19 14:31:04;;;;;;;;;;;3.00;99.90;;;;;;5053992;28;19928;-63
2021/12/19 14:33:34;;;;;;;;;;;3.00;99.90;;;;;;5060102;28;19924;-71
2021/12/19 14:36:05;;;;;;;;;;;3.00;99.90;;;;;;5068942;28;19931;-69
2021/12/19 14:38:32;;;;;;;;;;;3.00;99.90;;;;;;5068548;28;19921;-69
2021/12/19 14:41:03;;;;;;;;;;;3.10;99.90;;;;;;5068594;28;19927;-70
2021/12/19 14:43:32;;;;;;;;;;;3.10;99.90;;;;;;5068485;28;20357;-62
2021/12/19 14:46:01;;;;;;;;;;;3.10;99.90;;;;;;5058462;28;19921;-68
2021/12/19 14:48:34;;;;;;;;;;;3.10;99.90;;;;;;5049015;28;19921;-65
2021/12/19 14:51:11;;;;;;;;;;;3.10;99.90;;;;;;5067216;28;19924;-72
2021/12/19 14:53:40;;;;;;;;;;;3.10;99.90;;;;;;5068549;28;19920;-70
2021/12/19 14:56:14;;;;;;;;;;;3.10;99.90;;;;;;5068654;28;19921;-69
2021/12/19 14:58:47;;;;;;;;;;;3.10;99.90;;;;;;5066974;28;19921;-70
2021/12/19 15:01:16;;;;;;;;;;;3.20;99.90;;;;;;5057429;28;20404;-71
2021/12/19 15:03:48;;;;;;;;;;;3.20;99.90;;;;;;5061206;28;19920;-71
2021/12/19 15:06:21;;;;;;;;;;;3.20;99.90;;;;;;5068454;28;19920;-72
2021/12/19 15:08:49;;;;;;;;;;;3.20;99.90;;;;;;5050422;28;19924;-68
2021/12/19 15:11:17;;;;;;;;;;;3.20;99.90;;;;;;5068388;28;19924;-67
2021/12/19 15:13:45;;;;;;;;;;;3.30;99.90;;;;;;5068100;28;19924;-69
2021/12/19 15:16:13;;;;;;;;;;;3.20;99.90;;;;;;5057988;28;19936;-72
2021/12/19 15:18:43;;;;;;;;;;;3.20;99.90;;;;;;5047019;28;19925;-72
2021/12/19 15:21:12;;;;;;;;;;;3.30;99.90;;;;;;5068067;28;19927;-69
2021/12/19 15:23:42;;;;;;;;;;;3.30;99.90;;;;;;5066976;28;19925;-71
2021/12/19 15:26:16;;;;;;;;;;;3.30;99.90;;;;;;5068360;28;20383;-62
2021/12/19 15:28:46;;;;;;;;;;;3.30;99.90;;;;;;5067913;28;19935;-66
2021/12/19 15:31:15;;;;;;;;;;;3.30;99.90;;;;;;5058544;28;20265;-60
2021/12/19 15:33:42;;;;;;;;;;;3.30;99.90;;;;;;5058196;28;19921;-66
2021/12/19 15:36:10;;;;;;;;;;;3.40;99.90;;;;;;5058366;28;19924;-61
2021/12/19 15:38:38;;;;;;;;;;;3.30;99.90;;;;;;5045636;28;19928;-61
2021/12/19 15:41:05;;;;;;;;;;;3.30;99.90;;;;;;5062127;28;20363;-62
2021/12/19 15:43:33;;;;;;;;;;;3.30;99.90;;;;;;5045643;28;19927;-64
2021/12/19 15:46:01;;;;;;;;;;;3.30;99.90;;;;;;5057842;28;20273;-62
2021/12/19 15:48:28;;;;;;;;;;;3.30;99.90;;;;;;5045092;28;19927;-61
2021/12/19 15:50:56;;;;;;;;;;;3.40;99.90;;;;;;5061955;28;19927;-60
2021/12/19 15:53:23;;;;;;;;;;;3.40;99.90;;;;;;5064758;28;19931;-61
2021/12/19 15:55:51;;;;;;;;;;;3.40;99.90;;;;;;5064320;28;19935;-59
2021/12/19 15:58:18;;;;;;;;;;;3.30;99.90;;;;;;5064775;28;19927;-60
2021/12/19 16:00:46;;;;;;;;;;;3.30;99.90;;;;;;5061433;28;19924;-61
2021/12/19 16:03:14;;;;;;;;;;;3.30;99.90;;;;;;5064245;28;19927;-62
2021/12/19 16:05:42;;;;;;;;;;;3.30;99.90;;;;;;5062688;28;19931;-62
2021/12/19 16:08:10;;;;;;;;;;;3.30;99.90;;;;;;5064355;28;19921;-61